createdAt,value
2018-12-17T00:00:25.685Z,101173.77
2018-12-17T00:02:55.280Z,101172.19
2018-12-17T00:05:24.937Z,101174.06
2018-12-17T00:07:54.684Z,101177.28
2018-12-17T00:10:24.329Z,101172.42
2018-12-17T00:12:54.545Z,101167.61
2018-12-17T00:15:24.339Z,101164.73
2018-12-17T00:17:53.850Z,101162.91
2018-12-17T00:20:23.305Z,101175.41
2018-12-17T00:22:52.922Z,101176.42
2018-12-17T00:25:22.470Z,101175.89
2018-12-17T00:30:48.612Z,101178.97
2018-12-17T00:33:18.122Z,101183.30
2018-12-17T00:35:47.582Z,101192.16
2018-12-17T00:38:17.027Z,101189.45
2018-12-17T00:40:46.400Z,101189.98
2018-12-17T00:43:15.781Z,101190.70
2018-12-17T00:45:45.323Z,101194.59
2018-12-17T00:48:14.732Z,101198.30
2018-12-17T00:50:44.152Z,101196.72
2018-12-17T00:53:13.624Z,101195.17
2018-12-17T00:55:43.135Z,101176.03
2018-12-17T00:58:15.337Z,101194.83
2018-12-17T01:00:44.140Z,101198.44
2018-12-17T01:03:13.614Z,101150.27
2018-12-17T01:05:43.261Z,101202.67
2018-12-17T01:08:11.721Z,101201.03
2018-12-17T01:10:41.164Z,101195.50
2018-12-17T01:13:10.631Z,101197.48
2018-12-17T01:15:40.021Z,101198.39
2018-12-17T01:18:09.564Z,101200.23
2018-12-17T01:20:39.009Z,101196.72
2018-12-17T01:23:08.469Z,101206.77
2018-12-17T01:25:38.045Z,101205.09
2018-12-17T01:28:07.534Z,101206.56
2018-12-17T01:30:37.189Z,101208.20
2018-12-17T01:33:06.624Z,101204.64
2018-12-17T01:35:36.073Z,101203.92
2018-12-17T01:38:05.939Z,101202.44
2018-12-17T01:40:35.810Z,101201.72
2018-12-17T01:43:05.358Z,101199.45
2018-12-17T01:45:34.754Z,101201.53
2018-12-17T01:48:04.290Z,101199.61
2018-12-17T01:50:33.742Z,101202.97
2018-12-17T01:53:03.154Z,101210.00
2018-12-17T01:55:32.542Z,101203.59
2018-12-17T01:58:02.022Z,101210.76
2018-12-17T02:00:31.451Z,101199.51
2018-12-17T02:03:00.888Z,101207.25
2018-12-17T02:05:30.313Z,101218.08
2018-12-17T02:07:59.814Z,101219.84
2018-12-17T02:10:29.248Z,101224.47
2018-12-17T02:12:58.667Z,101230.52
2018-12-17T02:15:28.108Z,101232.70
2018-12-17T02:17:57.614Z,101228.94
2018-12-17T02:23:23.771Z,101237.07
2018-12-17T02:25:53.247Z,101234.47
2018-12-17T02:28:22.995Z,101247.79
2018-12-17T02:30:52.579Z,101240.20
2018-12-17T02:33:22.640Z,101249.14
2018-12-17T02:35:52.182Z,101251.55
2018-12-17T02:41:18.388Z,101248.19
2018-12-17T02:43:48.412Z,101233.23
2018-12-17T02:46:17.836Z,101232.31
2018-12-17T02:48:57.449Z,101236.45
2018-12-17T02:51:30.172Z,101248.47
2018-12-17T02:54:05.594Z,101177.44
2018-12-17T02:56:51.232Z,101229.33
2018-12-17T03:00:01.006Z,101235.48
2018-12-17T03:02:39.007Z,101252.23
2018-12-17T03:05:12.216Z,101255.55
2018-12-17T03:07:43.198Z,101255.80
2018-12-17T03:10:40.938Z,101253.72
2018-12-17T03:13:22.854Z,101258.39
2018-12-17T03:15:54.431Z,101259.94
2018-12-17T03:18:39.054Z,101263.54
2018-12-17T03:21:11.808Z,101271.63
2018-12-17T03:23:42.950Z,101275.91
2018-12-17T03:29:19.497Z,101274.13
2018-12-17T03:31:58.743Z,101270.52
2018-12-17T03:34:45.723Z,101273.31
2018-12-17T03:37:21.203Z,101279.19
2018-12-17T03:40:03.564Z,101288.70
2018-12-17T03:43:06.133Z,101292.18
2018-12-17T03:45:43.484Z,101288.36
2018-12-17T03:48:20.258Z,101285.48
2018-12-17T03:50:53.424Z,101289.04
2018-12-17T03:53:26.670Z,101280.43
2018-12-17T03:56:10.382Z,101268.41
2018-12-17T03:58:46.055Z,101271.81
2018-12-17T04:01:29.919Z,101275.52
2018-12-17T04:04:02.682Z,101276.59
2018-12-17T04:06:33.779Z,101281.78
2018-12-17T04:12:07.513Z,101290.55
2018-12-17T04:14:54.158Z,101292.36
2018-12-17T04:17:29.653Z,101292.70
2018-12-17T04:20:22.596Z,101303.25
2018-12-17T04:22:58.261Z,101303.25
2018-12-17T04:25:29.307Z,101306.81
2018-12-17T04:28:05.117Z,101307.95
2018-12-17T04:30:40.965Z,101317.84
2018-12-17T04:33:13.781Z,101315.75
2018-12-17T04:36:02.376Z,101314.89
2018-12-17T04:38:43.219Z,101314.84
2018-12-17T04:44:28.796Z,101323.89
2018-12-17T04:46:58.173Z,101317.84
2018-12-17T04:49:42.393Z,101320.56
2018-12-17T04:54:54.767Z,101333.33
2018-12-17T04:57:24.301Z,101337.62
2018-12-17T04:59:59.574Z,101340.50
2018-12-17T05:02:57.135Z,101340.06
2018-12-17T05:05:26.590Z,101351.33
2018-12-17T05:07:56.100Z,101343.95
2018-12-17T05:10:27.018Z,101354.16
2018-12-17T05:12:56.564Z,101360.33
2018-12-17T05:15:25.970Z,101359.50
2018-12-17T05:17:55.470Z,101369.28
2018-12-17T05:20:25.087Z,101367.51
2018-12-17T05:22:54.611Z,101363.74
2018-12-17T05:25:24.270Z,101374.62
2018-12-17T05:27:53.660Z,101372.48
2018-12-17T05:30:23.127Z,101380.67
2018-12-17T05:32:52.676Z,101384.64
2018-12-17T05:35:23.062Z,101387.19
2018-12-17T05:37:52.557Z,101388.97
2018-12-17T05:40:22.075Z,101392.73
2018-12-17T05:42:51.651Z,101396.03
2018-12-17T05:45:21.062Z,101394.58
2018-12-17T05:47:50.512Z,101401.28
2018-12-17T05:50:19.890Z,101403.79
2018-12-17T05:52:49.301Z,101401.92
2018-12-17T05:55:18.823Z,101392.87
2018-12-17T05:57:48.289Z,101406.11
2018-12-17T06:00:17.769Z,101401.20
2018-12-17T06:02:47.249Z,101407.02
2018-12-17T06:05:16.857Z,101417.03
2018-12-17T06:07:46.278Z,101410.63
2018-12-17T06:10:15.761Z,101414.97
2018-12-17T06:12:45.158Z,101419.43
2018-12-17T06:15:14.640Z,101423.92
2018-12-17T06:17:44.065Z,101423.69
2018-12-17T06:20:13.506Z,101424.60
2018-12-17T06:22:42.969Z,101425.17
2018-12-17T06:25:12.498Z,101423.59
2018-12-17T06:27:41.980Z,101430.77
2018-12-17T06:30:11.622Z,101431.27
2018-12-17T06:32:41.078Z,101429.97
2018-12-17T06:35:10.682Z,101442.01
2018-12-17T06:37:40.125Z,101447.55
2018-12-17T06:40:10.377Z,101451.45
2018-12-17T06:42:40.270Z,101454.29
2018-12-17T06:45:09.987Z,101452.16
2018-12-17T06:47:39.508Z,101455.48
2018-12-17T06:50:09.060Z,101462.70
2018-12-17T06:52:38.534Z,101471.33
2018-12-17T06:55:08.155Z,101462.80
2018-12-17T06:57:38.731Z,101465.53
2018-12-17T07:00:08.984Z,101466.70
2018-12-17T07:02:38.420Z,101470.55
2018-12-17T07:05:08.177Z,101469.44
2018-12-17T07:07:37.671Z,101470.73
2018-12-17T07:10:07.501Z,101480.17
2018-12-17T07:12:37.172Z,101483.83
2018-12-17T07:15:07.724Z,101482.44
2018-12-17T07:17:37.203Z,101487.50
2018-12-17T07:20:07.234Z,101494.87
2018-12-17T07:22:36.657Z,101504.66
2018-12-17T07:25:06.560Z,101502.35
2018-12-17T07:27:36.119Z,101505.30
2018-12-17T07:30:06.674Z,101430.78
2018-12-17T07:32:36.888Z,101506.45
2018-12-17T07:35:08.649Z,101512.70
2018-12-17T07:37:39.117Z,101509.63
2018-12-17T07:40:09.267Z,101512.09
2018-12-17T07:42:38.884Z,101513.22
2018-12-17T07:45:08.643Z,101513.00
2018-12-17T07:47:38.196Z,101514.25
2018-12-17T07:50:08.418Z,101514.62
2018-12-17T07:52:44.212Z,101519.05
2018-12-17T07:55:13.852Z,101522.32
2018-12-17T07:57:43.251Z,101524.75
2018-12-17T08:00:13.217Z,101525.48
2018-12-17T08:02:42.703Z,101525.71
2018-12-17T08:05:12.118Z,101535.41
2018-12-17T08:07:41.538Z,101529.44
2018-12-17T08:10:11.134Z,101526.34
2018-12-17T08:12:40.630Z,101524.06
2018-12-17T08:15:10.321Z,101521.44
2018-12-17T08:17:58.510Z,101521.78
2018-12-17T08:20:45.329Z,101515.13
2018-12-17T08:23:21.072Z,101518.25
2018-12-17T08:25:50.815Z,101518.73
2018-12-17T08:28:37.392Z,101523.00
2018-12-17T08:31:19.654Z,101544.53
2018-12-17T08:33:49.158Z,101560.23
2018-12-17T08:36:18.709Z,101555.20
2018-12-17T08:38:48.193Z,101555.63
2018-12-17T08:41:17.669Z,101562.52
2018-12-17T08:43:47.193Z,101558.42
2018-12-17T08:46:16.704Z,101569.52
2018-12-17T08:48:46.142Z,101559.40
2018-12-17T08:51:15.604Z,101573.22
2018-12-17T08:53:45.087Z,101556.52
2018-12-17T08:56:14.505Z,101561.58
2018-12-17T08:58:44.098Z,101568.81
2018-12-17T09:01:13.609Z,101568.38
2018-12-17T09:03:43.111Z,101565.53
2018-12-17T09:06:12.493Z,101556.67
2018-12-17T09:08:41.998Z,101574.27
2018-12-17T09:11:11.421Z,101571.53
2018-12-17T09:13:40.849Z,101570.85
2018-12-17T09:16:10.415Z,101579.08
2018-12-17T09:18:39.966Z,101583.97
2018-12-17T09:24:06.180Z,101584.45
2018-12-17T09:26:35.573Z,101587.51
2018-12-17T09:29:05.414Z,101587.05
2018-12-17T09:31:35.704Z,101583.48
2018-12-17T09:34:05.325Z,101589.52
2018-12-17T09:36:34.844Z,101595.88
2018-12-17T09:39:15.185Z,101595.95
2018-12-17T09:41:44.615Z,101594.98
2018-12-17T09:44:14.208Z,101586.34
2018-12-17T09:46:44.364Z,101595.06
2018-12-17T09:49:13.761Z,101588.48
2018-12-17T09:51:43.206Z,101591.36
2018-12-17T09:54:12.663Z,101593.81
2018-12-17T09:56:42.252Z,101593.97
2018-12-17T09:59:11.706Z,101595.12
2018-12-17T10:01:41.244Z,101593.09
2018-12-17T10:04:10.680Z,101590.64
2018-12-17T10:06:40.248Z,101592.95
2018-12-17T10:09:09.906Z,101597.05
2018-12-17T10:11:39.485Z,101599.37
2018-12-17T10:14:08.919Z,101591.55
2018-12-17T10:16:38.468Z,101592.86
2018-12-17T10:19:07.955Z,101583.35
2018-12-17T10:21:37.513Z,101578.39
2018-12-17T10:24:07.051Z,101581.58
2018-12-17T10:26:36.621Z,101576.55
2018-12-17T10:29:06.137Z,101581.19
2018-12-17T10:31:35.599Z,101583.89
2018-12-17T10:34:05.227Z,101571.01
2018-12-17T10:36:34.660Z,101574.73
2018-12-17T10:39:05.933Z,101583.11
2018-12-17T10:41:35.515Z,101579.78
2018-12-17T10:44:05.189Z,101582.42
2018-12-17T10:46:34.697Z,101582.58
2018-12-17T10:49:04.253Z,101581.61
2018-12-17T10:51:33.778Z,101584.33
2018-12-17T10:54:03.227Z,101581.78
2018-12-17T10:56:32.811Z,101587.29
2018-12-17T10:59:02.240Z,101585.46
2018-12-17T11:01:36.971Z,101585.27
2018-12-17T11:04:13.746Z,101581.80
2018-12-17T11:06:43.241Z,101587.11
2018-12-17T11:09:12.770Z,101591.98
2018-12-17T11:11:42.295Z,101588.22
2018-12-17T11:14:11.825Z,101591.69
2018-12-17T11:16:41.286Z,101593.28
2018-12-17T11:19:10.799Z,101587.95
2018-12-17T11:21:40.457Z,101583.13
2018-12-17T11:24:10.042Z,101581.20
2018-12-17T11:26:39.550Z,101578.56
2018-12-17T11:29:09.088Z,101579.12
2018-12-17T11:31:38.492Z,101577.01
2018-12-17T11:34:07.915Z,101571.16
2018-12-17T11:36:37.483Z,101567.53
2018-12-17T11:39:10.278Z,101574.05
2018-12-17T11:41:40.131Z,101571.11
2018-12-17T11:44:09.500Z,101572.25
2018-12-17T11:46:39.034Z,101573.55
2018-12-17T11:49:08.485Z,101565.95
2018-12-17T11:54:33.398Z,101570.21
2018-12-17T11:57:51.227Z,101559.96
2018-12-17T12:00:22.874Z,101558.19
2018-12-17T12:02:58.935Z,101562.95
2018-12-17T12:05:23.820Z,101563.26
2018-12-17T12:07:53.474Z,101561.46
2018-12-17T12:10:23.000Z,101558.21
2018-12-17T12:12:52.455Z,101504.09
2018-12-17T12:15:21.979Z,101561.11
2018-12-17T12:17:51.524Z,101573.93
2018-12-17T12:20:21.013Z,101567.72
2018-12-17T12:22:50.416Z,101574.00
2018-12-17T12:28:17.214Z,101577.89
2018-12-17T12:30:46.688Z,101576.98
2018-12-17T12:33:16.272Z,101580.95
2018-12-17T12:48:44.038Z,101588.82
2018-12-17T12:54:34.556Z,101589.88
2018-12-17T12:57:09.461Z,101590.75
2018-12-17T12:59:39.158Z,101595.53
2018-12-17T13:02:09.728Z,101593.61
2018-12-17T13:04:39.284Z,101601.11
2018-12-17T13:07:08.890Z,101598.63
2018-12-17T13:09:38.307Z,101597.25
2018-12-17T13:12:11.097Z,101603.23
2018-12-17T13:14:40.600Z,101598.61
2018-12-17T13:20:41.458Z,101600.96
2018-12-17T13:23:29.934Z,101602.81
2018-12-17T13:25:59.552Z,101604.93
2018-12-17T13:28:29.057Z,101605.36
2018-12-17T13:30:58.632Z,101604.28
2018-12-17T13:33:28.070Z,101594.33
2018-12-17T13:35:58.438Z,101597.59
2018-12-17T13:38:27.888Z,101604.05
2018-12-17T13:40:57.503Z,101609.27
2018-12-17T13:43:26.942Z,101608.34
2018-12-17T13:45:56.374Z,101603.63
2018-12-17T13:48:26.109Z,101613.40
2018-12-17T13:54:04.967Z,101610.02
2018-12-17T13:56:34.524Z,101615.62
2018-12-17T13:59:04.037Z,101621.42
2018-12-17T14:01:33.572Z,101614.59
2018-12-17T14:04:03.024Z,101616.94
2018-12-17T14:06:32.514Z,101610.29
2018-12-17T14:09:02.030Z,101611.06
2018-12-17T14:11:31.521Z,101613.66
2018-12-17T14:17:09.848Z,101627.08
2018-12-17T14:19:42.201Z,101631.21
2018-12-17T14:22:11.696Z,101633.81
2018-12-17T14:24:41.154Z,101639.01
2018-12-17T14:27:11.847Z,101627.02
2018-12-17T14:29:41.481Z,101620.64
2018-12-17T14:32:11.127Z,101625.00
2018-12-17T14:34:40.570Z,101638.42
2018-12-17T14:37:10.092Z,101627.88
2018-12-17T14:39:39.602Z,101615.62
2018-12-17T14:42:09.286Z,101619.25
2018-12-17T14:44:39.521Z,101621.03
2018-12-17T14:47:21.948Z,101627.24
2018-12-17T15:08:54.716Z,101663.76
2018-12-17T15:11:36.369Z,101670.98
2018-12-17T15:14:22.023Z,101678.63
2018-12-17T15:16:55.341Z,101681.13
2018-12-17T15:19:49.868Z,101681.37
2018-12-17T15:22:25.223Z,101692.30
2018-12-17T15:24:57.286Z,101691.22
2018-12-17T15:27:49.040Z,101688.67
2018-12-17T15:36:53.415Z,101693.16
2018-12-17T15:42:40.607Z,101688.33
2018-12-17T15:45:06.353Z,101681.91
2018-12-17T15:47:35.898Z,101686.88
2018-12-17T15:50:05.814Z,101698.31
2018-12-17T15:52:35.406Z,101699.73
2018-12-17T15:55:05.328Z,101691.86
2018-12-17T15:57:34.825Z,101704.70
2018-12-17T16:00:05.128Z,101705.28
2018-12-17T16:02:34.675Z,101704.55
2018-12-17T16:05:05.518Z,101701.46
2018-12-17T16:07:35.372Z,101703.86
2018-12-17T16:10:05.782Z,101705.67
2018-12-17T16:15:38.318Z,101712.52
2018-12-17T16:18:07.981Z,101711.64
2018-12-17T16:20:37.452Z,101715.41
2018-12-17T16:23:07.029Z,101716.48
2018-12-17T16:25:36.513Z,101718.07
2018-12-17T16:28:06.326Z,101718.16
2018-12-17T16:30:35.830Z,101718.94
2018-12-17T16:33:05.397Z,101718.16
2018-12-17T16:35:35.011Z,101710.16
2018-12-17T16:38:10.525Z,101714.02
2018-12-17T16:40:40.311Z,101715.55
2018-12-17T16:43:09.873Z,101718.88
2018-12-17T16:45:39.568Z,101730.66
2018-12-17T16:48:09.005Z,101737.48
2018-12-17T16:50:38.888Z,101739.27
2018-12-17T16:53:08.377Z,101732.31
2018-12-17T16:55:44.814Z,101737.29
2018-12-17T16:58:14.576Z,101741.44
2018-12-17T17:01:02.049Z,101746.41
2018-12-17T17:03:35.204Z,101747.27
2018-12-17T17:06:16.966Z,101754.23
2018-12-17T17:08:46.472Z,101753.69
2018-12-17T17:11:20.010Z,101749.41
2018-12-17T17:13:55.280Z,101745.97
2018-12-17T17:16:24.837Z,101750.12
2018-12-17T17:22:51.431Z,101756.21
2018-12-17T17:25:27.345Z,101760.98
2018-12-17T17:27:56.986Z,101761.09
2018-12-17T17:30:32.793Z,101763.98
2018-12-17T17:33:02.398Z,101767.27
2018-12-17T17:35:31.991Z,101769.20
2018-12-17T17:38:01.481Z,101763.41
2018-12-17T17:40:49.278Z,101771.08
2018-12-17T17:43:47.914Z,101774.37
2018-12-17T17:46:31.007Z,101775.72
2018-12-17T17:49:00.591Z,101774.64
2018-12-17T17:51:30.183Z,101779.30
2018-12-17T17:53:59.831Z,101778.66
2018-12-17T17:56:29.334Z,101775.95
2018-12-17T17:58:59.627Z,101779.97
2018-12-17T18:01:29.155Z,101777.89
2018-12-17T18:07:01.963Z,101779.30
2018-12-17T18:09:31.457Z,101781.41
2018-12-17T18:12:02.183Z,101786.95
2018-12-17T18:14:31.750Z,101781.79
2018-12-17T18:17:01.369Z,101787.97
2018-12-17T18:19:30.922Z,101793.01
2018-12-17T18:22:00.410Z,101790.73
2018-12-17T18:27:34.088Z,101794.89
2018-12-17T18:30:03.853Z,101784.06
2018-12-17T18:32:33.510Z,101787.06
2018-12-17T18:35:02.996Z,101790.97
2018-12-17T18:37:49.288Z,101796.00
2018-12-17T18:40:18.872Z,101790.39
2018-12-17T18:42:48.385Z,101789.95
2018-12-17T18:45:17.922Z,101798.61
2018-12-17T18:47:47.517Z,101793.48
2018-12-17T18:50:17.285Z,101798.17
2018-12-17T18:52:52.630Z,101791.75
2018-12-17T18:55:23.096Z,101794.15
2018-12-17T18:57:52.650Z,101799.37
2018-12-17T19:07:39.871Z,101799.52
2018-12-17T19:26:20.529Z,101815.55
2018-12-17T19:28:49.936Z,101817.91
2018-12-17T19:31:19.748Z,101806.88
2018-12-17T21:52:23.151Z,101826.45
2018-12-17T21:54:52.754Z,101824.59
2018-12-17T21:57:32.393Z,101840.12
2018-12-17T22:00:26.208Z,101832.81
2018-12-17T22:03:18.891Z,101837.50
2018-12-17T22:05:48.390Z,101840.54
2018-12-17T22:08:17.871Z,101839.03
2018-12-17T22:14:19.271Z,101844.79
2018-12-17T22:16:48.648Z,101848.77
2018-12-17T22:19:18.131Z,101857.92
2018-12-17T22:25:33.771Z,101865.88
2018-12-17T22:28:09.527Z,101866.86
2018-12-17T22:30:58.054Z,101868.05
2018-12-17T22:33:45.887Z,101874.98
2018-12-17T22:36:16.274Z,101876.61
2018-12-17T22:38:45.773Z,101874.00
2018-12-17T22:41:15.209Z,101878.99
2018-12-17T22:43:44.598Z,101875.58
2018-12-17T22:46:14.037Z,101875.95
2018-12-17T22:48:43.413Z,101870.11
2018-12-17T22:51:12.821Z,101873.55
2018-12-17T22:53:42.294Z,101874.27
2018-12-17T22:56:11.697Z,101882.53
2018-12-17T22:58:42.688Z,101886.30
2018-12-17T23:01:12.553Z,101888.92
2018-12-17T23:03:41.938Z,101889.39
2018-12-17T23:06:11.389Z,101884.61
2018-12-17T23:08:52.833Z,101878.87
2018-12-17T23:11:43.297Z,101874.53
2018-12-17T23:14:29.751Z,101877.02
2018-12-17T23:17:16.136Z,101874.28
2018-12-17T23:19:47.058Z,101868.39
2018-12-17T23:22:16.946Z,101867.47
2018-12-17T23:24:46.398Z,101862.69
2018-12-17T23:27:16.933Z,101858.31
2018-12-17T23:29:46.379Z,101866.48
2018-12-17T23:32:15.745Z,101862.50
2018-12-17T23:34:45.136Z,101868.50
2018-12-17T23:37:14.688Z,101869.75
2018-12-17T23:39:44.118Z,101873.23
2018-12-17T23:42:13.765Z,101871.98
2018-12-17T23:44:43.199Z,101870.34
2018-12-17T23:47:12.832Z,101871.12
2018-12-17T23:49:42.489Z,101872.50
2018-12-17T23:52:11.916Z,101875.03
2018-12-17T23:54:41.487Z,101875.77
2018-12-17T23:57:10.913Z,101882.09
2018-12-17T23:59:40.344Z,101878.22
